createdAt,value
2019-03-30T00:00:57.646Z,8.19
2019-03-30T00:01:57.663Z,8.19
2019-03-30T00:02:57.625Z,8.20
2019-03-30T00:03:57.626Z,8.18
2019-03-30T00:04:57.608Z,8.16
2019-03-30T00:05:57.600Z,8.24
2019-03-30T00:06:57.585Z,8.15
2019-03-30T00:07:57.597Z,8.08
2019-03-30T00:08:57.574Z,8.06
2019-03-30T00:09:57.559Z,8.12
2019-03-30T00:10:58.246Z,8.05
2019-03-30T00:11:57.980Z,8.08
2019-03-30T00:12:57.554Z,8.09
2019-03-30T00:13:57.523Z,8.08
2019-03-30T00:14:57.499Z,7.98
2019-03-30T00:15:57.487Z,7.93
2019-03-30T00:16:57.474Z,7.94
2019-03-30T00:17:57.465Z,7.97
2019-03-30T00:18:57.476Z,7.97
2019-03-30T00:19:57.436Z,7.94
2019-03-30T00:20:57.460Z,7.95
2019-03-30T00:21:57.514Z,7.94
2019-03-30T00:22:57.406Z,7.95
2019-03-30T00:23:57.412Z,8.01
2019-03-30T00:24:57.390Z,7.95
2019-03-30T00:25:57.374Z,7.83
2019-03-30T00:26:57.369Z,7.85
2019-03-30T00:27:57.360Z,7.75
2019-03-30T00:28:57.388Z,7.73
2019-03-30T00:29:57.326Z,7.82
2019-03-30T00:30:57.334Z,7.79
2019-03-30T00:31:57.304Z,7.75
2019-03-30T00:32:57.292Z,7.76
2019-03-30T00:33:57.288Z,7.77
2019-03-30T00:34:57.434Z,7.77
2019-03-30T00:35:57.259Z,7.77
2019-03-30T00:36:57.284Z,7.77
2019-03-30T00:37:57.291Z,7.76
2019-03-30T00:38:57.224Z,7.76
2019-03-30T00:39:57.226Z,7.73
2019-03-30T00:40:57.203Z,7.80
2019-03-30T00:41:57.214Z,7.76
2019-03-30T00:42:57.208Z,7.80
2019-03-30T00:43:57.166Z,7.75
2019-03-30T00:44:57.159Z,7.61
2019-03-30T00:45:57.149Z,7.72
2019-03-30T00:46:57.165Z,7.69
2019-03-30T00:47:57.153Z,7.75
2019-03-30T00:48:57.130Z,7.67
2019-03-30T00:49:57.108Z,7.69
2019-03-30T00:50:57.273Z,7.67
2019-03-30T00:51:57.118Z,7.67
2019-03-30T00:52:57.082Z,7.54
2019-03-30T00:53:57.141Z,7.58
2019-03-30T00:54:57.049Z,7.51
2019-03-30T00:55:57.046Z,7.53
2019-03-30T00:56:57.035Z,7.56
2019-03-30T00:57:57.013Z,7.50
2019-03-30T00:58:57.003Z,7.50
2019-03-30T00:59:57.018Z,7.54
2019-03-30T01:00:56.982Z,7.45
2019-03-30T01:01:56.969Z,7.42
2019-03-30T01:02:56.959Z,7.35
2019-03-30T01:03:56.986Z,7.33
2019-03-30T01:04:56.961Z,7.47
2019-03-30T01:05:58.295Z,7.33
2019-03-30T01:06:56.950Z,7.38
2019-03-30T01:07:56.947Z,7.31
2019-03-30T01:08:56.889Z,7.32
2019-03-30T01:09:56.881Z,7.35
2019-03-30T01:10:56.873Z,7.23
2019-03-30T01:11:56.863Z,7.36
2019-03-30T01:12:56.847Z,7.32
2019-03-30T01:13:56.905Z,7.17
2019-03-30T01:14:56.851Z,7.31
2019-03-30T01:15:56.818Z,7.20
2019-03-30T01:16:56.810Z,7.25
2019-03-30T01:17:56.801Z,7.28
2019-03-30T01:18:56.782Z,7.29
2019-03-30T01:20:02.820Z,7.18
2019-03-30T01:20:57.770Z,7.18
2019-03-30T01:21:56.763Z,7.15
2019-03-30T01:22:56.747Z,7.17
2019-03-30T01:23:56.731Z,7.17
2019-03-30T01:24:56.715Z,7.15
2019-03-30T01:25:56.754Z,7.07
2019-03-30T01:26:56.705Z,7.11
2019-03-30T01:27:56.679Z,7.10
2019-03-30T01:28:56.674Z,7.07
2019-03-30T01:29:56.658Z,7.13
2019-03-30T01:30:56.653Z,7.02
2019-03-30T01:31:56.663Z,7.07
2019-03-30T01:32:56.635Z,7.03
2019-03-30T01:33:56.728Z,6.96
2019-03-30T01:34:56.603Z,6.92
2019-03-30T01:35:56.606Z,6.88
2019-03-30T01:36:56.583Z,6.87
2019-03-30T01:37:56.566Z,6.95
2019-03-30T01:38:56.583Z,6.85
2019-03-30T01:39:56.565Z,6.82
2019-03-30T01:40:56.540Z,6.78
2019-03-30T01:41:56.582Z,6.75
2019-03-30T01:42:56.548Z,6.78
2019-03-30T01:43:56.515Z,6.77
2019-03-30T01:44:56.508Z,6.70
2019-03-30T01:45:56.495Z,6.79
2019-03-30T01:46:56.472Z,6.67
2019-03-30T01:47:56.461Z,6.66
2019-03-30T01:48:56.441Z,6.69
2019-03-30T01:49:56.576Z,6.62
2019-03-30T01:50:56.459Z,6.57
2019-03-30T01:51:56.441Z,6.59
2019-03-30T01:52:56.407Z,6.64
2019-03-30T01:53:56.389Z,6.57
2019-03-30T01:54:56.398Z,6.49
2019-03-30T01:55:56.367Z,6.49
2019-03-30T01:56:56.354Z,6.48
2019-03-30T01:57:56.340Z,6.46
2019-03-30T01:58:56.338Z,6.48
2019-03-30T01:59:56.332Z,6.45
2019-03-30T02:00:56.338Z,6.45
2019-03-30T02:01:56.297Z,6.49
2019-03-30T02:02:56.301Z,6.51
2019-03-30T02:03:56.275Z,6.42
2019-03-30T02:04:56.264Z,6.57
2019-03-30T02:05:56.272Z,6.49
2019-03-30T02:06:56.259Z,6.44
2019-03-30T02:07:56.233Z,6.48
2019-03-30T02:08:56.217Z,6.51
2019-03-30T02:09:56.243Z,6.45
2019-03-30T02:10:56.235Z,6.48
2019-03-30T02:11:56.190Z,6.44
2019-03-30T02:12:56.192Z,6.54
2019-03-30T02:13:56.250Z,6.45
2019-03-30T02:14:56.175Z,6.51
2019-03-30T02:15:56.145Z,6.52
2019-03-30T02:16:56.175Z,6.46
2019-03-30T02:17:56.117Z,6.44
2019-03-30T02:18:56.107Z,6.46
2019-03-30T02:19:56.096Z,6.45
2019-03-30T02:20:56.088Z,6.46
2019-03-30T02:21:56.075Z,6.46
2019-03-30T02:22:56.087Z,6.48
2019-03-30T02:23:56.052Z,6.54
2019-03-30T02:24:56.042Z,6.48
2019-03-30T02:25:56.029Z,6.42
2019-03-30T02:26:56.026Z,6.44
2019-03-30T02:27:56.018Z,6.45
2019-03-30T02:28:56.025Z,6.46
2019-03-30T02:29:55.983Z,6.31
2019-03-30T02:30:55.976Z,6.36
2019-03-30T02:31:55.966Z,6.44
2019-03-30T02:32:56.191Z,6.31
2019-03-30T02:33:55.943Z,6.30
2019-03-30T02:34:55.953Z,6.30
2019-03-30T02:35:55.946Z,6.22
2019-03-30T02:36:55.905Z,6.33
2019-03-30T02:37:55.905Z,6.24
2019-03-30T02:38:55.888Z,6.24
2019-03-30T02:39:55.874Z,6.22
2019-03-30T02:40:55.890Z,6.12
2019-03-30T02:41:55.852Z,6.09
2019-03-30T02:42:55.845Z,6.16
2019-03-30T02:43:55.848Z,6.02
2019-03-30T02:44:55.843Z,6.08
2019-03-30T02:45:55.807Z,6.08
2019-03-30T02:46:55.825Z,5.98
2019-03-30T02:47:55.793Z,6.11
2019-03-30T02:48:55.816Z,6.05
2019-03-30T02:49:55.762Z,6.09
2019-03-30T02:50:55.770Z,6.02
2019-03-30T02:51:55.821Z,6.11
2019-03-30T02:52:55.736Z,6.01
2019-03-30T02:53:55.771Z,5.98
2019-03-30T02:54:55.711Z,5.97
2019-03-30T02:55:55.709Z,5.86
2019-03-30T02:56:55.689Z,5.86
2019-03-30T02:57:55.707Z,6.05
2019-03-30T02:58:55.666Z,5.97
2019-03-30T02:59:55.685Z,5.89
2019-03-30T03:00:55.653Z,5.87
2019-03-30T03:01:55.635Z,5.91
2019-03-30T03:02:55.623Z,5.87
2019-03-30T03:03:55.611Z,5.89
2019-03-30T03:04:55.623Z,5.87
2019-03-30T03:05:55.592Z,5.90
2019-03-30T03:06:55.590Z,5.86
2019-03-30T03:07:55.585Z,5.93
2019-03-30T03:08:55.589Z,5.94
2019-03-30T03:09:55.680Z,5.86
2019-03-30T03:10:55.532Z,5.86
2019-03-30T03:11:55.524Z,5.82
2019-03-30T03:12:55.533Z,5.80
2019-03-30T03:13:55.502Z,5.89
2019-03-30T03:14:55.541Z,5.80
2019-03-30T03:15:55.480Z,5.80
2019-03-30T03:16:55.474Z,5.82
2019-03-30T03:17:55.485Z,5.80
2019-03-30T03:18:55.462Z,5.84
2019-03-30T03:19:55.448Z,5.87
2019-03-30T03:21:07.269Z,5.75
2019-03-30T03:21:56.419Z,5.73
2019-03-30T03:22:55.404Z,5.79
2019-03-30T03:23:55.424Z,5.79
2019-03-30T03:24:55.384Z,5.75
2019-03-30T03:25:55.537Z,5.71
2019-03-30T03:26:55.363Z,5.69
2019-03-30T03:27:55.363Z,5.79
2019-03-30T03:28:55.395Z,5.71
2019-03-30T03:29:55.433Z,5.65
2019-03-30T03:30:55.340Z,5.64
2019-03-30T03:31:55.325Z,5.62
2019-03-30T03:32:55.297Z,5.56
2019-03-30T03:33:55.287Z,5.59
2019-03-30T03:34:55.283Z,5.57
2019-03-30T03:35:55.302Z,5.62
2019-03-30T03:36:55.288Z,5.65
2019-03-30T03:37:55.250Z,5.64
2019-03-30T03:38:55.231Z,5.61
2019-03-30T03:39:55.218Z,5.68
2019-03-30T03:40:55.228Z,5.68
2019-03-30T03:41:55.236Z,5.68
2019-03-30T03:42:55.193Z,5.73
2019-03-30T03:43:55.184Z,5.72
2019-03-30T03:44:55.175Z,5.72
2019-03-30T03:45:55.156Z,5.91
2019-03-30T03:46:55.161Z,5.82
2019-03-30T03:47:55.158Z,5.80
2019-03-30T03:48:55.127Z,5.84
2019-03-30T03:49:55.169Z,5.87
2019-03-30T03:50:55.122Z,5.83
2019-03-30T03:51:55.091Z,5.71
2019-03-30T03:52:55.076Z,5.69
2019-03-30T03:53:55.085Z,5.68
2019-03-30T03:54:55.058Z,5.75
2019-03-30T03:55:55.052Z,5.69
2019-03-30T03:56:55.024Z,5.76
2019-03-30T03:57:55.017Z,5.65
2019-03-30T03:58:55.043Z,5.68
2019-03-30T03:59:55.027Z,5.62
2019-03-30T04:00:54.994Z,5.61
2019-03-30T04:01:54.983Z,5.61
2019-03-30T04:02:55.091Z,5.62
2019-03-30T04:03:54.955Z,5.68
2019-03-30T04:04:54.942Z,5.59
2019-03-30T04:05:55.011Z,5.59
2019-03-30T04:06:54.928Z,5.53
2019-03-30T04:07:54.903Z,5.57
2019-03-30T04:08:54.900Z,5.64
2019-03-30T04:09:54.890Z,5.59
2019-03-30T04:10:54.887Z,5.57
2019-03-30T04:11:54.890Z,5.59
2019-03-30T04:12:54.855Z,5.62
2019-03-30T04:13:54.878Z,5.68
2019-03-30T04:14:54.831Z,5.75
2019-03-30T04:15:54.835Z,5.75
2019-03-30T04:16:54.804Z,5.71
2019-03-30T04:17:54.808Z,5.80
2019-03-30T04:18:54.891Z,5.76
2019-03-30T04:19:54.785Z,5.84
2019-03-30T04:20:54.761Z,5.76
2019-03-30T04:21:54.860Z,5.80
2019-03-30T04:22:54.738Z,5.86
2019-03-30T04:23:54.757Z,5.86
2019-03-30T04:24:54.719Z,5.83
2019-03-30T04:25:54.728Z,5.86
2019-03-30T04:26:54.696Z,5.82
2019-03-30T04:27:54.695Z,5.83
2019-03-30T04:28:54.677Z,5.75
2019-03-30T04:29:54.666Z,5.83
2019-03-30T04:30:54.670Z,5.75
2019-03-30T04:31:54.641Z,5.80
2019-03-30T04:32:54.632Z,5.75
2019-03-30T04:33:54.622Z,5.66
2019-03-30T04:34:54.612Z,5.73
2019-03-30T04:35:54.596Z,5.71
2019-03-30T04:36:54.620Z,5.65
2019-03-30T04:37:54.573Z,5.69
2019-03-30T04:38:54.581Z,5.66
2019-03-30T04:39:54.551Z,5.66
2019-03-30T04:40:54.568Z,5.66
2019-03-30T04:41:54.532Z,5.73
2019-03-30T04:42:54.669Z,5.69
2019-03-30T04:43:54.527Z,5.73
2019-03-30T04:44:54.494Z,5.72
2019-03-30T04:45:54.594Z,5.87
2019-03-30T04:46:54.585Z,5.75
2019-03-30T04:47:54.483Z,5.76
2019-03-30T04:48:54.462Z,5.76
2019-03-30T04:49:54.449Z,5.75
2019-03-30T04:50:54.430Z,5.80
2019-03-30T04:51:57.938Z,5.80
2019-03-30T04:52:54.416Z,5.76
2019-03-30T04:53:54.438Z,5.76
2019-03-30T04:54:54.390Z,5.80
2019-03-30T04:55:54.385Z,5.79
2019-03-30T04:56:54.400Z,5.80
2019-03-30T04:57:57.841Z,5.80
2019-03-30T04:58:54.349Z,5.80
2019-03-30T04:59:54.327Z,5.87
2019-03-30T05:00:54.330Z,5.83
2019-03-30T05:01:54.433Z,5.83
2019-03-30T05:02:54.298Z,5.82
2019-03-30T05:03:54.313Z,5.75
2019-03-30T05:04:54.286Z,5.80
2019-03-30T05:05:54.266Z,5.79
2019-03-30T05:06:54.258Z,5.80
2019-03-30T05:07:54.246Z,5.82
2019-03-30T05:08:54.261Z,5.75
2019-03-30T05:09:54.252Z,5.82
2019-03-30T05:11:45.109Z,5.76
2019-03-30T05:12:45.082Z,5.80
2019-03-30T05:13:45.109Z,5.73
2019-03-30T05:14:45.065Z,5.84
2019-03-30T05:15:45.075Z,5.82
2019-03-30T05:16:45.066Z,5.82
2019-03-30T05:17:47.788Z,5.76
2019-03-30T05:18:45.007Z,5.82
2019-03-30T05:19:44.997Z,5.87
2019-03-30T05:21:34.292Z,5.90
2019-03-30T05:22:34.266Z,5.87
2019-03-30T05:23:34.223Z,5.93
2019-03-30T05:24:34.215Z,5.89
2019-03-30T05:25:34.208Z,5.83
2019-03-30T05:26:34.203Z,5.86
2019-03-30T05:27:34.210Z,5.84
2019-03-30T05:28:34.170Z,5.97
2019-03-30T05:29:34.168Z,5.87
2019-03-30T05:30:34.149Z,5.82
2019-03-30T05:31:34.141Z,5.82
2019-03-30T05:32:34.134Z,5.75
2019-03-30T05:33:34.139Z,5.83
2019-03-30T05:34:34.106Z,5.89
2019-03-30T05:35:34.098Z,5.82
2019-03-30T05:36:34.083Z,5.76
2019-03-30T05:37:34.097Z,5.89
2019-03-30T05:38:34.062Z,5.82
2019-03-30T05:39:34.176Z,5.90
2019-03-30T05:40:34.069Z,5.82
2019-03-30T05:41:34.038Z,5.89
2019-03-30T05:42:34.020Z,5.80
2019-03-30T05:43:34.011Z,5.76
2019-03-30T05:44:34.005Z,5.97
2019-03-30T05:45:34.005Z,5.86
2019-03-30T05:46:33.969Z,5.83
2019-03-30T05:47:33.971Z,5.91
2019-03-30T05:48:33.953Z,5.91
2019-03-30T05:49:33.945Z,5.90
2019-03-30T05:50:33.931Z,5.93
2019-03-30T05:51:33.938Z,6.02
2019-03-30T05:52:35.607Z,6.07
2019-03-30T05:53:33.908Z,6.08
2019-03-30T05:54:33.883Z,6.08
2019-03-30T05:55:33.891Z,6.08
2019-03-30T05:56:33.891Z,6.05
2019-03-30T05:57:33.880Z,6.20
2019-03-30T05:58:33.841Z,6.30
2019-03-30T05:59:34.401Z,6.22
2019-03-30T06:00:33.823Z,6.35
2019-03-30T06:01:33.836Z,6.33
2019-03-30T06:02:33.797Z,6.38
2019-03-30T06:03:33.818Z,6.46
2019-03-30T06:04:33.777Z,6.51
2019-03-30T06:05:33.765Z,6.63
2019-03-30T06:06:33.751Z,6.70
2019-03-30T06:07:33.745Z,6.78
2019-03-30T06:08:33.742Z,6.88
2019-03-30T06:09:33.744Z,6.89
2019-03-30T06:10:33.716Z,6.92
2019-03-30T06:11:33.793Z,7.05
2019-03-30T06:12:33.699Z,7.24
2019-03-30T06:13:33.683Z,7.28
2019-03-30T06:14:33.764Z,7.35
2019-03-30T06:15:33.674Z,7.43
2019-03-30T06:16:33.664Z,7.57
2019-03-30T06:17:33.635Z,7.53
2019-03-30T06:18:33.622Z,7.61
2019-03-30T06:19:33.619Z,7.82
2019-03-30T06:20:33.613Z,7.85
2019-03-30T06:21:33.626Z,7.98
2019-03-30T06:22:40.211Z,8.05
2019-03-30T06:23:34.573Z,8.20
2019-03-30T06:24:33.560Z,8.19
2019-03-30T06:25:33.564Z,8.27
2019-03-30T06:26:33.531Z,8.31
2019-03-30T06:27:33.550Z,8.44
2019-03-30T06:28:33.507Z,8.46
2019-03-30T06:29:33.501Z,8.53
2019-03-30T06:30:33.506Z,8.61
2019-03-30T06:31:33.493Z,8.66
2019-03-30T06:32:33.470Z,8.69
2019-03-30T06:33:33.485Z,8.71
2019-03-30T06:34:33.446Z,8.81
2019-03-30T06:35:33.594Z,8.85
2019-03-30T06:36:33.426Z,8.84
2019-03-30T06:37:33.415Z,8.97
2019-03-30T06:38:33.462Z,8.97
2019-03-30T06:39:36.802Z,9.03
2019-03-30T06:40:33.415Z,9.11
2019-03-30T06:41:33.374Z,9.22
2019-03-30T06:42:33.381Z,9.19
2019-03-30T06:43:33.349Z,9.29
2019-03-30T06:44:33.367Z,9.34
2019-03-30T06:45:33.377Z,9.40
2019-03-30T06:46:33.316Z,9.36
2019-03-30T06:47:33.316Z,9.40
2019-03-30T06:48:36.000Z,9.51
2019-03-30T06:49:33.290Z,9.48
2019-03-30T06:50:33.298Z,9.59
2019-03-30T06:51:33.258Z,9.62
2019-03-30T06:52:33.251Z,9.72
2019-03-30T06:53:33.318Z,9.73
2019-03-30T06:54:33.241Z,9.73
2019-03-30T06:55:33.219Z,9.80
2019-03-30T06:56:33.255Z,9.79
2019-03-30T06:57:33.220Z,9.95
2019-03-30T06:58:33.190Z,9.99
2019-03-30T06:59:33.166Z,10.10
2019-03-30T07:00:33.165Z,10.16
2019-03-30T07:01:33.175Z,10.23
2019-03-30T07:02:33.152Z,10.34
2019-03-30T07:03:33.124Z,10.40
2019-03-30T07:04:33.122Z,10.40
2019-03-30T07:05:33.113Z,10.53
2019-03-30T07:06:33.094Z,10.46
2019-03-30T07:07:33.107Z,10.48
2019-03-30T07:08:33.079Z,10.61
2019-03-30T07:09:33.088Z,10.61
2019-03-30T07:10:33.049Z,10.76
2019-03-30T07:11:33.065Z,10.87
2019-03-30T07:12:33.043Z,10.74
2019-03-30T07:13:33.017Z,10.81
2019-03-30T07:14:33.003Z,10.92
2019-03-30T07:15:32.994Z,10.87
2019-03-30T07:16:33.029Z,11.07
2019-03-30T07:17:33.006Z,11.10
2019-03-30T07:18:33.132Z,11.04
2019-03-30T07:19:32.960Z,11.11
2019-03-30T07:20:32.940Z,11.14
2019-03-30T07:21:32.939Z,11.19
2019-03-30T07:22:32.921Z,11.19
2019-03-30T07:23:32.945Z,11.15
2019-03-30T07:24:32.916Z,11.30
2019-03-30T07:25:32.892Z,11.26
2019-03-30T07:26:32.887Z,11.35
2019-03-30T07:27:32.893Z,11.37
2019-03-30T07:28:32.885Z,11.41
2019-03-30T07:29:32.926Z,11.48
2019-03-30T07:30:32.831Z,11.54
2019-03-30T07:31:32.867Z,11.48
2019-03-30T07:32:32.813Z,11.62
2019-03-30T07:33:32.800Z,11.62
2019-03-30T07:34:32.818Z,11.70
2019-03-30T07:35:32.774Z,11.66
2019-03-30T07:36:32.769Z,11.73
2019-03-30T07:37:32.768Z,11.75
2019-03-30T07:38:32.781Z,11.78
2019-03-30T07:39:32.733Z,11.81
2019-03-30T07:40:34.066Z,11.83
2019-03-30T07:41:32.709Z,11.90
2019-03-30T07:42:32.722Z,11.87
2019-03-30T07:43:32.695Z,11.86
2019-03-30T07:44:32.700Z,11.95
2019-03-30T07:45:32.667Z,11.94
2019-03-30T07:46:32.664Z,11.95
2019-03-30T07:47:32.710Z,12.10
2019-03-30T07:48:32.635Z,12.13
2019-03-30T07:49:32.621Z,12.09
2019-03-30T07:50:32.632Z,12.07
2019-03-30T07:51:33.632Z,12.12
2019-03-30T07:52:32.599Z,12.15
2019-03-30T07:53:43.830Z,12.22
2019-03-30T07:54:33.569Z,12.15
2019-03-30T07:55:32.559Z,12.21
2019-03-30T07:56:32.593Z,12.20
2019-03-30T07:57:32.534Z,12.09
2019-03-30T07:58:32.525Z,12.15
2019-03-30T07:59:32.510Z,12.04
2019-03-30T08:00:32.506Z,12.09
2019-03-30T08:01:32.556Z,12.20
2019-03-30T08:02:32.493Z,12.18
2019-03-30T08:03:32.477Z,12.20
2019-03-30T08:04:32.449Z,12.24
2019-03-30T08:05:32.449Z,12.17
2019-03-30T08:06:32.429Z,12.27
2019-03-30T08:07:32.423Z,12.17
2019-03-30T08:08:32.431Z,12.25
2019-03-30T08:09:32.401Z,12.24
2019-03-30T08:10:32.409Z,12.27
2019-03-30T08:11:32.398Z,12.31
2019-03-30T08:12:32.366Z,12.36
2019-03-30T08:13:32.358Z,12.29
2019-03-30T08:14:32.366Z,12.35
2019-03-30T08:15:32.360Z,12.42
2019-03-30T08:16:32.335Z,12.47
2019-03-30T08:17:32.925Z,12.46
2019-03-30T08:18:32.310Z,12.45
2019-03-30T08:19:32.283Z,12.54
2019-03-30T08:20:32.277Z,12.55
2019-03-30T08:21:32.306Z,12.62
2019-03-30T08:22:32.291Z,12.68
2019-03-30T08:23:40.158Z,12.68
2019-03-30T08:24:33.269Z,12.72
2019-03-30T08:25:32.225Z,12.83
2019-03-30T08:26:35.504Z,12.76
2019-03-30T08:27:32.210Z,12.80
2019-03-30T08:28:32.187Z,12.86
2019-03-30T08:29:32.178Z,12.83
2019-03-30T08:30:32.193Z,12.86
2019-03-30T08:31:32.168Z,13.00
2019-03-30T08:32:32.176Z,12.97
2019-03-30T08:33:32.212Z,13.01
2019-03-30T08:34:32.124Z,13.05
2019-03-30T08:35:32.112Z,13.09
2019-03-30T08:36:32.113Z,13.16
2019-03-30T08:37:32.101Z,13.08
2019-03-30T08:38:32.110Z,13.13
2019-03-30T08:39:32.071Z,13.11
2019-03-30T08:40:32.068Z,13.12
2019-03-30T08:41:32.049Z,13.15
2019-03-30T08:42:32.042Z,13.25
2019-03-30T08:43:32.140Z,13.28
2019-03-30T08:44:32.113Z,13.30
2019-03-30T08:45:31.999Z,13.31
2019-03-30T08:46:31.999Z,13.44
2019-03-30T08:47:31.981Z,13.44
2019-03-30T08:48:31.969Z,13.53
2019-03-30T08:49:31.971Z,13.54
2019-03-30T08:50:31.972Z,13.63
2019-03-30T08:51:31.971Z,13.62
2019-03-30T08:52:31.931Z,13.62
2019-03-30T08:53:31.921Z,13.70
2019-03-30T08:54:31.909Z,13.70
2019-03-30T08:55:31.907Z,13.81
2019-03-30T08:56:31.883Z,13.77
2019-03-30T08:57:32.034Z,13.74
2019-03-30T08:58:31.860Z,13.83
2019-03-30T08:59:31.845Z,13.81
2019-03-30T09:00:31.881Z,13.81
2019-03-30T09:01:31.848Z,13.92
2019-03-30T09:02:31.854Z,13.90
2019-03-30T09:03:34.041Z,13.90
2019-03-30T09:04:31.799Z,13.96
2019-03-30T09:05:31.777Z,13.92
2019-03-30T09:06:31.792Z,14.04
2019-03-30T09:07:31.761Z,14.08
2019-03-30T09:08:31.745Z,14.17
2019-03-30T09:09:31.735Z,14.29
2019-03-30T09:10:31.724Z,14.25
2019-03-30T09:11:31.718Z,14.30
2019-03-30T09:12:31.727Z,14.22
2019-03-30T09:13:31.695Z,14.32
2019-03-30T09:14:31.731Z,14.32
2019-03-30T09:15:31.671Z,14.32
2019-03-30T09:16:31.840Z,14.35
2019-03-30T09:17:31.658Z,14.43
2019-03-30T09:18:31.661Z,14.41
2019-03-30T09:19:31.709Z,14.51
2019-03-30T09:20:31.667Z,14.50
2019-03-30T09:21:31.603Z,14.62
2019-03-30T09:22:31.598Z,14.66
2019-03-30T09:23:31.608Z,14.66
2019-03-30T09:24:31.615Z,14.68
2019-03-30T09:25:31.570Z,14.63
2019-03-30T09:26:31.588Z,14.62
2019-03-30T09:27:31.548Z,14.77
2019-03-30T09:28:31.532Z,14.77
2019-03-30T09:29:31.614Z,14.78
2019-03-30T09:30:31.506Z,14.89
2019-03-30T09:31:31.512Z,14.86
2019-03-30T09:32:31.513Z,14.84
2019-03-30T09:33:31.483Z,14.96
2019-03-30T09:34:31.465Z,14.88
2019-03-30T09:35:31.497Z,14.97
2019-03-30T09:36:31.471Z,14.92
2019-03-30T09:37:31.466Z,15.00
2019-03-30T09:38:31.435Z,15.07
2019-03-30T09:39:31.412Z,15.10
2019-03-30T09:40:31.463Z,15.22
2019-03-30T09:41:31.393Z,15.22
2019-03-30T09:42:31.401Z,15.29
2019-03-30T09:43:31.366Z,15.27
2019-03-30T09:44:31.354Z,15.25
2019-03-30T09:45:31.356Z,15.35
2019-03-30T09:46:31.350Z,15.31
2019-03-30T09:47:31.332Z,15.29
2019-03-30T09:48:31.319Z,15.40
2019-03-30T09:49:31.304Z,15.51
2019-03-30T09:50:31.312Z,15.59
2019-03-30T09:51:31.288Z,15.57
2019-03-30T09:52:31.266Z,15.62
2019-03-30T09:53:31.255Z,15.57
2019-03-30T09:54:31.271Z,15.68
2019-03-30T09:55:31.233Z,15.62
2019-03-30T09:56:31.261Z,15.65
2019-03-30T09:57:31.219Z,15.64
2019-03-30T09:58:31.194Z,15.68
2019-03-30T09:59:31.192Z,15.61
2019-03-30T10:00:31.176Z,15.52
2019-03-30T10:01:31.172Z,15.55
2019-03-30T10:02:31.186Z,15.59
2019-03-30T10:03:31.166Z,15.55
2019-03-30T10:04:31.131Z,15.62
2019-03-30T10:05:31.146Z,15.72
2019-03-30T10:06:34.504Z,15.75
2019-03-30T10:07:31.103Z,15.75
2019-03-30T10:08:31.084Z,15.83
2019-03-30T10:09:31.107Z,15.83
2019-03-30T10:10:31.091Z,15.82
2019-03-30T10:11:31.057Z,15.90
2019-03-30T10:12:31.091Z,15.88
2019-03-30T10:13:31.051Z,15.76
2019-03-30T10:14:31.018Z,15.72
2019-03-30T10:15:31.010Z,15.75
2019-03-30T10:16:30.997Z,15.77
2019-03-30T10:17:30.987Z,15.88
2019-03-30T10:18:31.006Z,15.95
2019-03-30T10:19:30.956Z,15.94
2019-03-30T10:20:31.062Z,16.09
2019-03-30T10:21:30.943Z,16.10
2019-03-30T10:22:30.956Z,16.13
2019-03-30T10:23:30.945Z,16.29
2019-03-30T10:24:37.835Z,16.31
2019-03-30T10:25:32.064Z,16.33
2019-03-30T10:26:30.885Z,16.47
2019-03-30T10:27:30.879Z,16.49
2019-03-30T10:28:30.869Z,16.47
2019-03-30T10:29:30.894Z,16.42
2019-03-30T10:30:30.851Z,16.46
2019-03-30T10:31:30.855Z,16.43
2019-03-30T10:32:30.819Z,16.46
2019-03-30T10:33:30.815Z,16.49
2019-03-30T10:34:30.794Z,16.51
2019-03-30T10:35:30.788Z,16.51
2019-03-30T10:36:31.457Z,16.54
2019-03-30T10:37:30.793Z,16.61
2019-03-30T10:38:30.746Z,16.60
2019-03-30T10:39:30.775Z,16.65
2019-03-30T10:40:30.731Z,16.66
2019-03-30T10:41:30.722Z,16.71
2019-03-30T10:42:30.747Z,16.74
2019-03-30T10:43:30.699Z,16.78
2019-03-30T10:44:30.684Z,16.76
2019-03-30T10:45:30.687Z,16.78
2019-03-30T10:46:30.690Z,16.83
2019-03-30T10:47:30.653Z,16.68
2019-03-30T10:48:30.668Z,16.68
2019-03-30T10:49:30.625Z,16.81
2019-03-30T10:50:30.616Z,16.78
2019-03-30T10:51:30.615Z,16.69
2019-03-30T10:52:30.743Z,16.83
2019-03-30T10:53:30.611Z,16.89
2019-03-30T10:54:30.578Z,16.90
2019-03-30T10:55:30.581Z,17.09
2019-03-30T10:56:30.551Z,17.09
2019-03-30T10:57:30.539Z,17.01
2019-03-30T10:58:30.533Z,17.09
2019-03-30T10:59:30.548Z,17.05
2019-03-30T11:00:30.516Z,17.09
2019-03-30T11:01:30.497Z,17.16
2019-03-30T11:02:30.493Z,17.16
2019-03-30T11:03:30.562Z,17.27
2019-03-30T11:04:30.497Z,17.42
2019-03-30T11:05:30.457Z,17.57
2019-03-30T11:06:30.448Z,17.68
2019-03-30T11:07:30.439Z,17.57
2019-03-30T11:08:30.431Z,17.54
2019-03-30T11:09:30.435Z,17.51
2019-03-30T11:10:30.399Z,17.52
2019-03-30T11:11:39.081Z,17.60
2019-03-30T11:12:30.380Z,17.60
2019-03-30T11:13:30.409Z,17.57
2019-03-30T11:14:30.375Z,17.45
2019-03-30T11:15:33.791Z,17.41
2019-03-30T11:16:30.511Z,17.49
2019-03-30T11:17:30.316Z,17.60
2019-03-30T11:18:30.312Z,17.56
2019-03-30T11:19:37.402Z,17.52
2019-03-30T11:20:30.288Z,17.57
2019-03-30T11:21:30.274Z,17.65
2019-03-30T11:22:30.297Z,17.56
2019-03-30T11:23:30.254Z,17.70
2019-03-30T11:24:30.245Z,17.76
2019-03-30T11:25:30.228Z,17.89
2019-03-30T11:26:30.265Z,17.85
2019-03-30T11:27:30.226Z,18.00
2019-03-30T11:28:30.200Z,18.04
2019-03-30T11:29:30.212Z,18.11
2019-03-30T11:30:30.173Z,18.04
2019-03-30T11:31:30.179Z,18.03
2019-03-30T11:32:30.154Z,17.97
2019-03-30T11:33:30.186Z,18.04
2019-03-30T11:34:30.134Z,18.04
2019-03-30T11:35:30.145Z,18.25
2019-03-30T11:36:30.137Z,18.18
2019-03-30T11:37:30.105Z,18.13
2019-03-30T11:38:30.083Z,18.23
2019-03-30T11:39:30.082Z,18.33
2019-03-30T11:40:30.072Z,18.40
2019-03-30T11:41:30.062Z,18.50
2019-03-30T11:42:30.093Z,18.37
2019-03-30T11:43:30.040Z,18.34
2019-03-30T11:44:30.048Z,18.31
2019-03-30T11:45:30.027Z,18.22
2019-03-30T11:46:30.034Z,18.33
2019-03-30T11:47:30.049Z,18.33
2019-03-30T11:48:30.014Z,18.20
2019-03-30T11:49:29.971Z,18.31
2019-03-30T11:50:29.956Z,18.20
2019-03-30T11:51:29.954Z,18.16
2019-03-30T11:52:29.941Z,18.13
2019-03-30T11:53:29.948Z,18.13
2019-03-30T11:54:29.949Z,18.01
2019-03-30T11:55:29.900Z,17.95
2019-03-30T11:56:30.547Z,17.85
2019-03-30T11:57:29.881Z,17.95
2019-03-30T11:58:29.873Z,17.92
2019-03-30T11:59:29.993Z,17.95
2019-03-30T12:00:29.840Z,18.13
2019-03-30T12:01:29.911Z,18.10
2019-03-30T12:02:29.854Z,18.13
2019-03-30T12:03:29.822Z,18.15
2019-03-30T12:04:29.798Z,18.31
2019-03-30T12:05:29.825Z,18.25
2019-03-30T12:06:29.788Z,18.23
2019-03-30T12:07:29.777Z,18.13
2019-03-30T12:08:29.764Z,18.13
2019-03-30T12:09:29.757Z,18.18
2019-03-30T12:10:29.761Z,18.26
2019-03-30T12:11:29.764Z,18.34
2019-03-30T12:12:29.709Z,18.49
2019-03-30T12:13:29.727Z,18.52
2019-03-30T12:14:29.700Z,18.49
2019-03-30T12:15:30.551Z,18.49
2019-03-30T12:16:29.669Z,18.50
2019-03-30T12:17:29.664Z,18.56
2019-03-30T12:18:29.665Z,18.45
2019-03-30T12:19:29.658Z,18.52
2019-03-30T12:20:29.634Z,18.50
2019-03-30T12:21:29.628Z,18.38
2019-03-30T12:22:29.605Z,18.38
2019-03-30T12:23:29.600Z,18.38
2019-03-30T12:24:29.608Z,18.41
2019-03-30T12:25:35.750Z,18.52
2019-03-30T12:26:30.588Z,18.56
2019-03-30T12:27:29.574Z,18.55
2019-03-30T12:28:29.546Z,18.55
2019-03-30T12:29:29.526Z,18.52
2019-03-30T12:30:29.522Z,18.52
2019-03-30T12:31:29.607Z,18.58
2019-03-30T12:32:29.508Z,18.73
2019-03-30T12:33:29.482Z,19.12
2019-03-30T12:34:29.473Z,19.59
2019-03-30T12:35:29.458Z,20.09
2019-03-30T12:36:29.459Z,20.29
2019-03-30T12:37:29.466Z,20.63
2019-03-30T12:38:29.454Z,20.97
2019-03-30T12:39:29.431Z,21.43
2019-03-30T12:40:29.400Z,21.50
2019-03-30T12:41:29.390Z,21.61
2019-03-30T12:42:29.389Z,21.82
2019-03-30T12:43:29.397Z,22.10
2019-03-30T12:44:29.361Z,22.29
2019-03-30T12:45:29.360Z,22.17
2019-03-30T12:46:29.354Z,22.20
2019-03-30T12:47:29.346Z,22.25
2019-03-30T12:48:29.342Z,22.25
2019-03-30T12:49:29.323Z,22.28
2019-03-30T12:50:29.339Z,22.25
2019-03-30T12:51:29.304Z,22.28
2019-03-30T12:52:29.269Z,21.96
2019-03-30T12:53:29.331Z,22.15
2019-03-30T12:54:29.257Z,22.13
2019-03-30T12:55:29.271Z,22.30
2019-03-30T12:56:29.261Z,21.37
2019-03-30T12:57:29.244Z,20.97
2019-03-30T12:58:29.221Z,21.20
2019-03-30T12:59:29.203Z,21.18
2019-03-30T13:00:29.185Z,21.37
2019-03-30T13:01:29.194Z,21.70
2019-03-30T13:02:29.164Z,22.15
2019-03-30T13:03:29.195Z,22.47
2019-03-30T13:04:29.141Z,22.72
2019-03-30T13:05:29.144Z,22.80
2019-03-30T13:06:29.148Z,22.43
2019-03-30T13:07:29.125Z,22.38
2019-03-30T13:08:29.281Z,22.53